LIMFLIPZ

Guest
Details From LIMF - Torino Caselle
To LIPZ - Venezia Tessera
Flight Number -
Tags generated
Created
Modified
Stats Distance 199 nm / 369 km
Max Altitude 21,500 ft / 6,553 m
Waypoints 3
Social Downloads 2
Likes 0
Share VATSIM

Download

Looking for another format? Having issues loading an existing format? Contact us
Advertisement - Login to hide

Notes

Basic altitude profile: - Ascent Rate: 2500ft/min - Ascent Speed: 250kts - Cruise Altitude: 35000ft - Cruise Speed: 420kts - Descent Rate: 1500ft/min - Descent Speed: 250kts Options: - Use NATs: yes - Use PACOTS: yes - Use low airways: no - Use high airways: yes

Route

LIMF GIBLO LIPZ

ID Type Via Altitude Latitude Longitude Leg Dist Tot Dist Heading (true) Name
O LIMF APT - 0 ft / 0 m 45.20076˚ 7.64963˚ - 0 nm - Torino Caselle
GIBLO FIX - 21,500 ft / 6,553 m 45.35833˚ 9.86667˚ 94 nm 94 nm 83° / 85° -
O LIPZ APT - 0 ft / 0 m 45.50479˚ 12.34969˚ 105 nm 199 nm 84° / 86° Venezia Tessera

Altitude Profile

Advertisement - Login to hide

Weather


0- 5 10 15 20 25 30 35+ Temperature / ° C

Clouds and Precipitation
Forecast for 2017-12-12 06:00 UTC. Updated an hour ago

Ground ~20,000 ft ~40,000 ft Winds

LIMF

Details ICAO LIMF (TRN)
Name Torino Caselle
Region Italy
Timezone Europe/Rome (UTC+1.0)
Stats Elevation 989 ft / 301 m (AMSL)
Location 45.200763° 7.649630°
Runways 1
Magnetic Variation 2.121° E

METAR

LIMF 120620Z 29004KT 1200 0700S R36/P1500N BCFG NSC M03/M03 Q1004

Decode

TAF

TAF LIMF 120500Z 1206/1306 VRB05KT 0500 FZFG NSC BECMG 1207/1210 7000

Decode

Departure Runways

ID Width Length Bearing (true) Bearing (mag) Surface Threshold Offset Overrun Length
18 197 ft / 60 m 10,835 ft / 3,303 m 182.56° 180.44° Asphalt 2,378 ft / 725 m 970 ft / 296 m
36 197 ft / 60 m 10,835 ft / 3,303 m 2.56° 0.44° Asphalt 1,148 ft / 350 m 0 ft / 0 m

LIPZ

Details ICAO LIPZ (VCE)
Name Venezia Tessera
Region Italy
Timezone Europe/Rome (UTC+1.0)
Stats Elevation 7 ft / 2 m (AMSL)
Location 45.504791° 12.349691°
Runways 2
Magnetic Variation 3.179° E

METAR

LIPZ 120620Z 20011KT 9999 BKN060 09/09 Q1005 NOSIG

Decode

TAF

TAF LIPZ 120500Z 1206/1312 19012KT 9999 BKN040

Decode

Destination Runways

ID Width Length Bearing (true) Bearing (mag) Surface Threshold Offset Overrun Length
04L 148 ft / 45 m 9,112 ft / 2,777 m 42.01° 38.83° Asphalt 312 ft / 95 m 0 ft / 0 m
04R 148 ft / 45 m 10,834 ft / 3,302 m 41.99° 38.81° Asphalt 0 ft / 0 m 0 ft / 0 m
22L 148 ft / 45 m 10,834 ft / 3,302 m 222.01° 218.83° Asphalt 0 ft / 0 m 0 ft / 0 m
22R 148 ft / 45 m 9,112 ft / 2,777 m 222.02° 218.84° Asphalt 0 ft / 0 m 0 ft / 0 m

Approach Navaids

Runway Type Ident Frequency Range Bearing (true) Bearing (mag) Slope Elevation
04R Localiser VTS 109.95 MHz 18 nm / 33 km 42.02° 38.84° - 13 ft / 4 m (AMSL)
04R Glidescope VTS 109.95 MHz 10 nm / 19 km 42.00° 38.82° 3.00° 52 ft / 16 m (AMSL)
04R DME VTS 109.95 MHz 18 nm / 33 km - - - 26 ft / 8 m (AMSL)

Popular Alternatives